Gates, Tennessee
Current Conditions -  °F | °C
As of 4:15 AM on Tuesday 27 Jan 2015 (Local Time) from KDYR Reporting Station
Clear Clear  
Wind Chill: 34°   Ceiling: Unl
Heat Index: 34°   Visibility: 10mi
Dew Point: 21°   Wind: 3mph
Humidity: 60%   Direction: 270°W
Pressure: 29.98"   Gusts: NA
Location:  35.84°N, 89.41°W
Report Text: KDYR 271015Z 27003KT 10SM CLR 01/M06 A2998 RMK AO1
Loading
Personal Weather Stations






























Interactive Weather Map New forecast layout! Learn more

10-Day Weather Forecast

Advertisements
Track Severe Weather on mobile